createdAt,value
2022-10-25T00:01:37.472Z,2.89
2022-10-25T00:04:06.275Z,2.90
2022-10-25T00:06:35.033Z,2.94
2022-10-25T00:09:03.600Z,2.89
2022-10-25T00:11:33.120Z,2.86
2022-10-25T00:14:05.471Z,2.63
2022-10-25T00:16:37.158Z,2.53
2022-10-25T00:19:06.672Z,2.50
2022-10-25T00:21:35.399Z,2.45
2022-10-25T00:24:03.970Z,2.43
2022-10-25T00:26:32.832Z,2.46
2022-10-25T00:29:01.318Z,2.44
2022-10-25T00:31:29.896Z,2.37
2022-10-25T00:33:58.534Z,2.40
2022-10-25T00:36:28.144Z,2.37
2022-10-25T00:38:59.360Z,2.33
2022-10-25T00:41:33.553Z,2.31
2022-10-25T00:44:39.057Z,2.44
2022-10-25T00:47:41.705Z,2.54
2022-10-25T00:50:13.049Z,2.53
2022-10-25T00:52:44.528Z,2.57
2022-10-25T00:55:15.746Z,2.63
2022-10-25T00:58:13.459Z,2.62
2022-10-25T01:00:41.944Z,2.62
2022-10-25T01:03:10.534Z,2.62
2022-10-25T01:05:39.877Z,2.55
2022-10-25T01:08:08.656Z,2.35
2022-10-25T01:10:37.158Z,2.34
2022-10-25T01:13:06.156Z,2.48
2022-10-25T01:15:42.732Z,2.43
2022-10-25T01:18:22.574Z,2.33
2022-10-25T01:20:56.923Z,2.51
2022-10-25T01:23:31.628Z,2.53
2022-10-25T01:26:08.685Z,2.47
2022-10-25T01:29:21.857Z,2.50
2022-10-25T01:32:01.497Z,2.58
2022-10-25T01:34:58.498Z,2.57
2022-10-25T01:37:47.931Z,2.54
2022-10-25T01:40:30.407Z,2.59
2022-10-25T01:43:13.449Z,2.56
2022-10-25T01:46:09.153Z,2.57
2022-10-25T01:48:49.693Z,2.60
2022-10-25T01:51:19.677Z,2.58
2022-10-25T01:53:53.310Z,2.63
2022-10-25T01:56:41.440Z,2.68
2022-10-25T01:59:37.261Z,2.74
2022-10-25T02:02:18.759Z,2.72
2022-10-25T02:05:17.657Z,2.73
2022-10-25T02:08:10.268Z,2.74
2022-10-25T02:10:51.120Z,2.76
2022-10-25T02:13:39.042Z,2.67
2022-10-25T02:16:18.405Z,2.69
2022-10-25T02:18:50.865Z,2.73
2022-10-25T02:21:20.100Z,2.65
2022-10-25T02:23:51.768Z,2.66
2022-10-25T02:26:21.843Z,2.60
2022-10-25T02:28:50.951Z,2.63
2022-10-25T02:31:24.031Z,2.64
2022-10-25T02:33:52.576Z,2.54
2022-10-25T02:36:29.785Z,2.53
2022-10-25T02:38:58.809Z,2.56
2022-10-25T02:41:27.305Z,2.58
2022-10-25T02:43:55.910Z,2.58
2022-10-25T02:46:25.255Z,2.52
2022-10-25T02:48:54.013Z,2.51
2022-10-25T02:51:22.849Z,2.54
2022-10-25T02:53:51.617Z,2.57
2022-10-25T02:56:22.679Z,2.49
2022-10-25T02:58:52.949Z,2.51
2022-10-25T03:01:22.707Z,2.51
2022-10-25T03:03:51.821Z,2.48
2022-10-25T03:06:20.830Z,2.55
2022-10-25T03:08:49.513Z,2.50
2022-10-25T03:11:18.995Z,2.52
2022-10-25T03:13:47.558Z,2.64
2022-10-25T03:16:16.107Z,2.64
2022-10-25T03:18:44.554Z,2.63
2022-10-25T03:21:12.702Z,2.63
2022-10-25T03:23:41.413Z,2.64
2022-10-25T03:26:09.739Z,2.56
2022-10-25T03:28:38.213Z,2.61
2022-10-25T03:31:14.420Z,2.55
2022-10-25T03:33:42.919Z,2.50
2022-10-25T03:36:11.863Z,2.55
2022-10-25T03:38:40.435Z,2.48
2022-10-25T03:41:08.816Z,2.40
2022-10-25T03:43:37.321Z,2.43
2022-10-25T03:46:06.218Z,2.37
2022-10-25T03:48:34.731Z,2.34
2022-10-25T03:51:03.215Z,2.16
2022-10-25T03:53:31.934Z,2.14
2022-10-25T03:56:00.614Z,2.12
2022-10-25T03:58:29.128Z,2.13
2022-10-25T04:00:57.774Z,2.14
2022-10-25T04:03:26.422Z,2.20
2022-10-25T04:05:55.066Z,2.20
2022-10-25T04:08:23.669Z,2.20
2022-10-25T04:10:52.144Z,2.17
2022-10-25T04:13:20.608Z,2.14
2022-10-25T04:15:49.154Z,2.14
2022-10-25T04:18:17.673Z,2.10
2022-10-25T04:20:46.113Z,2.14
2022-10-25T04:23:14.668Z,2.09
2022-10-25T04:25:43.291Z,2.11
2022-10-25T04:28:11.812Z,2.05
2022-10-25T04:30:40.318Z,2.12
2022-10-25T04:33:09.131Z,2.08
2022-10-25T04:35:37.569Z,2.01
2022-10-25T04:38:06.099Z,1.78
2022-10-25T04:40:34.696Z,1.77
2022-10-25T04:43:03.683Z,1.79
2022-10-25T04:45:32.267Z,1.74
2022-10-25T04:48:01.583Z,1.47
2022-10-25T04:50:30.060Z,1.45
2022-10-25T04:52:58.603Z,1.51
2022-10-25T04:55:27.084Z,1.50
2022-10-25T04:57:55.529Z,1.48
2022-10-25T05:00:24.233Z,1.43
2022-10-25T05:02:56.443Z,1.42
2022-10-25T05:05:26.861Z,1.19
2022-10-25T05:07:55.297Z,0.97
2022-10-25T05:10:23.827Z,0.92
2022-10-25T05:12:52.347Z,0.82
2022-10-25T05:15:20.776Z,0.78
2022-10-25T05:17:49.212Z,0.72
2022-10-25T05:20:17.595Z,0.59
2022-10-25T05:22:46.704Z,0.48
2022-10-25T05:25:15.296Z,0.44
2022-10-25T05:27:44.073Z,0.45
2022-10-25T05:30:12.934Z,0.37
2022-10-25T05:32:41.578Z,0.25
2022-10-25T05:35:10.586Z,0.18
2022-10-25T05:37:39.097Z,0.04
2022-10-25T05:40:08.147Z,-0.08
2022-10-25T05:42:36.750Z,-0.02
2022-10-25T05:45:05.415Z,-0.08
2022-10-25T05:47:33.897Z,-0.12
2022-10-25T05:50:03.654Z,-0.11
2022-10-25T05:52:31.824Z,-0.16
2022-10-25T05:55:00.263Z,-0.03
2022-10-25T05:57:28.493Z,-0.03
2022-10-25T05:59:56.988Z,-0.13
2022-10-25T06:02:25.451Z,-0.15
2022-10-25T06:04:54.056Z,-0.01
2022-10-25T06:07:22.215Z,0.19
2022-10-25T06:09:50.697Z,0.00
2022-10-25T06:12:19.195Z,-0.05
2022-10-25T06:14:47.091Z,-0.01
2022-10-25T06:17:15.243Z,0.01
2022-10-25T06:19:44.067Z,-0.18
2022-10-25T06:22:12.992Z,-0.18
2022-10-25T06:24:41.451Z,-0.24
2022-10-25T06:27:09.932Z,-0.26
2022-10-25T06:29:38.498Z,-0.27
2022-10-25T06:32:07.059Z,-0.36
2022-10-25T06:34:35.558Z,-0.29
2022-10-25T06:37:05.060Z,-0.41
2022-10-25T06:39:33.571Z,-0.35
2022-10-25T06:42:02.019Z,-0.30
2022-10-25T06:44:30.542Z,-0.12
2022-10-25T06:47:17.946Z,0.09
2022-10-25T06:49:47.786Z,0.16
2022-10-25T06:52:16.270Z,0.03
2022-10-25T06:54:44.709Z,-0.14
2022-10-25T06:57:13.258Z,-0.23
2022-10-25T06:59:41.707Z,-0.45
2022-10-25T07:02:11.542Z,-0.54
2022-10-25T07:04:40.096Z,-0.69
2022-10-25T07:07:08.576Z,-0.65
2022-10-25T07:09:37.069Z,-0.80
2022-10-25T07:12:09.960Z,-0.92
2022-10-25T07:14:40.848Z,-0.79
2022-10-25T07:17:09.027Z,-0.97
2022-10-25T07:19:37.516Z,-1.04
2022-10-25T07:22:06.600Z,-1.18
2022-10-25T07:24:35.058Z,-1.24
2022-10-25T07:27:03.518Z,-1.27
2022-10-25T07:29:32.012Z,-1.12
2022-10-25T07:32:00.486Z,-1.23
2022-10-25T07:34:29.057Z,-1.13
2022-10-25T07:36:57.541Z,-1.14
2022-10-25T07:39:26.038Z,-1.12
2022-10-25T07:41:55.404Z,-1.26
2022-10-25T07:44:25.009Z,-1.25
2022-10-25T07:46:55.211Z,-1.33
2022-10-25T07:49:23.724Z,-1.17
2022-10-25T07:51:51.853Z,-1.15
2022-10-25T07:54:20.297Z,-1.32
2022-10-25T07:56:48.827Z,-1.24
2022-10-25T07:59:17.367Z,-1.41
2022-10-25T08:01:45.968Z,-1.42
2022-10-25T08:04:14.578Z,-1.50
2022-10-25T08:06:43.009Z,-1.49
2022-10-25T08:09:20.420Z,-1.54
2022-10-25T08:12:00.066Z,-1.37
2022-10-25T08:14:28.506Z,-1.49
2022-10-25T08:16:56.971Z,-1.53
2022-10-25T08:19:24.880Z,-1.40
2022-10-25T08:21:53.486Z,-1.45
2022-10-25T08:24:22.467Z,-1.39
2022-10-25T08:26:51.218Z,-1.42
2022-10-25T08:29:19.912Z,-1.45
2022-10-25T08:31:48.445Z,-1.59
2022-10-25T08:34:17.134Z,-1.69
2022-10-25T08:36:45.751Z,-1.87
2022-10-25T08:39:14.425Z,-2.24
2022-10-25T08:42:01.169Z,-2.45
2022-10-25T08:44:52.592Z,-2.16
2022-10-25T08:47:35.083Z,-2.36
2022-10-25T08:50:25.490Z,-2.47
2022-10-25T08:53:00.049Z,-2.36
2022-10-25T08:55:38.905Z,-2.29
2022-10-25T08:58:23.389Z,-2.37
2022-10-25T09:00:52.094Z,-2.42
2022-10-25T09:03:28.719Z,-2.45
2022-10-25T09:06:19.012Z,-2.26
2022-10-25T09:09:26.426Z,-2.44
2022-10-25T09:12:10.562Z,-2.53
2022-10-25T09:14:49.493Z,-2.44
2022-10-25T09:17:29.286Z,-2.36
2022-10-25T09:19:57.885Z,-2.43
2022-10-25T09:22:47.163Z,-2.46
2022-10-25T09:25:28.535Z,-2.43
2022-10-25T09:28:01.947Z,-2.53
2022-10-25T09:30:33.087Z,-2.47
2022-10-25T09:33:24.697Z,-2.40
2022-10-25T09:35:56.766Z,-2.48
2022-10-25T09:38:40.855Z,-2.68
2022-10-25T09:41:33.395Z,-2.61
2022-10-25T09:44:40.353Z,-2.56
2022-10-25T09:47:18.144Z,-2.81
2022-10-25T09:50:06.664Z,-2.77
2022-10-25T09:52:56.667Z,-2.93
2022-10-25T09:55:41.527Z,-3.07
2022-10-25T09:58:29.923Z,-2.86
2022-10-25T10:01:02.547Z,-2.99
2022-10-25T10:03:36.423Z,-3.14
2022-10-25T10:06:41.985Z,-2.99
2022-10-25T10:09:15.161Z,-2.93
2022-10-25T10:11:47.378Z,-3.13
2022-10-25T10:14:35.191Z,-2.95
2022-10-25T10:17:05.297Z,-2.91
2022-10-25T10:19:33.960Z,-2.80
2022-10-25T10:22:09.481Z,-2.90
2022-10-25T10:24:44.587Z,-2.78
2022-10-25T10:27:22.478Z,-2.55
2022-10-25T10:30:03.387Z,-2.43
2022-10-25T10:32:36.559Z,-2.64
2022-10-25T10:35:26.643Z,-2.82
2022-10-25T10:38:14.393Z,-3.15
2022-10-25T10:40:45.636Z,-3.05
2022-10-25T10:43:35.759Z,-2.81
2022-10-25T10:46:16.238Z,-2.80
2022-10-25T10:48:47.522Z,-2.68
2022-10-25T10:54:32.611Z,-2.35
2022-10-25T10:57:06.850Z,-2.11
2022-10-25T11:00:02.778Z,-1.95
2022-10-25T11:02:43.675Z,-1.91
2022-10-25T11:05:33.694Z,-2.14
2022-10-25T11:08:04.956Z,-2.22
2022-10-25T11:10:36.439Z,-2.14
2022-10-25T11:13:13.697Z,-1.90
2022-10-25T11:16:06.563Z,-1.99
2022-10-25T11:18:43.533Z,-2.09
2022-10-25T11:21:58.915Z,-2.17
2022-10-25T11:24:47.756Z,-2.04
2022-10-25T11:27:37.156Z,-2.20
2022-10-25T11:30:17.303Z,-2.17
2022-10-25T11:33:03.007Z,-2.14
2022-10-25T11:35:49.649Z,-2.65
2022-10-25T11:38:50.096Z,-3.17
2022-10-25T11:41:36.931Z,-3.22
2022-10-25T11:44:29.145Z,-3.18
2022-10-25T11:47:16.237Z,-3.34
2022-10-25T11:49:52.379Z,-3.30
2022-10-25T11:52:57.168Z,-3.35
2022-10-25T11:56:01.000Z,-3.33
2022-10-25T11:58:52.909Z,-3.20
2022-10-25T12:01:28.883Z,-2.83
2022-10-25T12:04:11.992Z,-2.91
2022-10-25T12:06:58.268Z,-2.65
2022-10-25T12:09:53.921Z,-2.59
2022-10-25T12:12:27.931Z,-2.66
2022-10-25T12:15:01.958Z,-2.77
2022-10-25T12:17:33.545Z,-2.80
2022-10-25T12:20:12.440Z,-2.81
2022-10-25T12:22:47.188Z,-2.96
2022-10-25T12:25:28.298Z,-3.04
2022-10-25T12:28:08.132Z,-2.84
2022-10-25T12:30:37.910Z,-2.92
2022-10-25T12:33:36.985Z,-2.96
2022-10-25T12:36:11.474Z,-2.72
2022-10-25T12:38:41.909Z,-2.54
2022-10-25T12:41:42.154Z,-2.62
2022-10-25T12:44:46.260Z,-2.57
2022-10-25T12:47:20.645Z,-2.56
2022-10-25T12:50:20.133Z,-2.64
2022-10-25T12:53:29.134Z,-2.65
2022-10-25T12:56:05.893Z,-2.64
2022-10-25T12:58:49.273Z,-2.34
2022-10-25T13:01:35.852Z,-2.04
2022-10-25T13:04:28.665Z,-1.85
2022-10-25T13:06:58.809Z,-1.79
2022-10-25T13:09:33.933Z,-1.71
2022-10-25T13:12:02.567Z,-1.70
2022-10-25T13:14:48.972Z,-1.62
2022-10-25T13:17:20.288Z,-1.49
2022-10-25T13:19:55.887Z,-1.39
2022-10-25T13:22:37.666Z,-1.29
2022-10-25T13:25:38.501Z,-1.25
2022-10-25T13:28:13.156Z,-1.21
2022-10-25T13:30:41.838Z,-1.18
2022-10-25T13:33:25.264Z,-1.19
2022-10-25T13:35:53.706Z,-1.15
2022-10-25T13:38:25.442Z,-1.14
2022-10-25T13:41:07.566Z,-1.09
2022-10-25T13:43:37.568Z,-1.09
2022-10-25T13:46:06.472Z,-1.07
2022-10-25T13:48:37.527Z,-1.15
2022-10-25T13:51:20.810Z,-1.25
2022-10-25T13:53:54.889Z,-1.40
2022-10-25T13:56:26.443Z,-1.39
2022-10-25T13:58:55.669Z,-1.42
2022-10-25T14:01:26.374Z,-1.53
2022-10-25T14:04:07.387Z,-1.66
2022-10-25T14:06:40.319Z,-1.69
2022-10-25T14:09:31.048Z,-1.93
2022-10-25T14:12:07.680Z,-2.07
2022-10-25T14:14:57.563Z,-2.03
2022-10-25T14:17:42.420Z,-1.98
2022-10-25T14:20:19.033Z,-2.24
2022-10-25T14:23:08.899Z,-2.11
2022-10-25T14:25:43.393Z,-2.30
2022-10-25T14:28:11.561Z,-2.34
2022-10-25T14:30:49.768Z,-2.32
2022-10-25T14:33:41.791Z,-2.14
2022-10-25T14:36:27.663Z,-2.13
2022-10-25T14:39:01.741Z,-2.22
2022-10-25T14:41:35.217Z,-2.10
2022-10-25T14:44:03.845Z,-2.06
2022-10-25T14:46:32.594Z,-1.98
2022-10-25T14:49:03.559Z,-1.96
2022-10-25T14:51:38.218Z,-1.86
2022-10-25T14:54:09.910Z,-1.88
2022-10-25T14:56:43.182Z,-1.92
2022-10-25T14:59:48.510Z,-1.96
2022-10-25T15:02:34.992Z,-1.90
2022-10-25T15:05:05.405Z,-1.86
2022-10-25T15:07:41.643Z,-1.76
2022-10-25T15:10:35.743Z,-1.74
2022-10-25T15:13:05.081Z,-1.73
2022-10-25T15:15:43.739Z,-1.69
2022-10-25T15:18:31.633Z,-1.75
2022-10-25T15:21:16.627Z,-1.73
2022-10-25T15:24:07.043Z,-1.72
2022-10-25T15:26:38.187Z,-1.63
2022-10-25T15:29:07.543Z,-1.64
2022-10-25T15:31:36.013Z,-1.62
2022-10-25T15:34:06.671Z,-1.51
2022-10-25T15:36:35.877Z,-1.57
2022-10-25T15:39:17.258Z,-1.45
2022-10-25T15:41:45.770Z,-1.35
2022-10-25T15:44:14.203Z,-1.21
2022-10-25T15:46:42.898Z,-1.11
2022-10-25T15:49:14.376Z,-0.95
2022-10-25T15:51:45.667Z,-0.78
2022-10-25T15:54:21.508Z,-0.61
2022-10-25T15:56:50.873Z,-0.47
2022-10-25T15:59:19.439Z,-0.25
2022-10-25T16:01:51.564Z,-0.03
2022-10-25T16:04:21.272Z,0.09
2022-10-25T16:06:49.849Z,0.22
2022-10-25T16:09:18.349Z,0.36
2022-10-25T16:11:56.272Z,0.46
2022-10-25T16:14:28.354Z,0.50
2022-10-25T16:16:59.319Z,0.50
2022-10-25T16:19:32.672Z,0.56
2022-10-25T16:22:01.219Z,0.62
2022-10-25T16:24:30.614Z,0.73
2022-10-25T16:27:00.580Z,0.78
2022-10-25T16:29:29.245Z,0.84
2022-10-25T16:31:57.813Z,0.85
2022-10-25T16:34:26.418Z,0.91
2022-10-25T16:36:55.242Z,0.98
2022-10-25T16:39:23.175Z,1.10
2022-10-25T16:41:52.862Z,1.02
2022-10-25T16:44:21.380Z,1.14
2022-10-25T16:46:49.821Z,1.24
2022-10-25T16:49:18.333Z,1.67
2022-10-25T16:51:46.983Z,1.96
2022-10-25T16:54:15.727Z,2.17
2022-10-25T16:56:44.422Z,2.29
2022-10-25T16:59:12.924Z,2.32
2022-10-25T17:01:44.580Z,2.44
2022-10-25T17:04:14.779Z,2.47
2022-10-25T17:06:43.329Z,2.49
2022-10-25T17:09:12.648Z,2.68
2022-10-25T17:11:41.247Z,2.74
2022-10-25T17:14:13.301Z,2.89
2022-10-25T17:16:43.651Z,2.89
2022-10-25T17:19:13.643Z,2.98
2022-10-25T17:21:42.212Z,3.27
2022-10-25T17:24:10.952Z,3.40
2022-10-25T17:26:40.551Z,3.30
2022-10-25T17:29:09.095Z,3.14
2022-10-25T17:31:37.907Z,3.14
2022-10-25T17:34:10.345Z,3.16
2022-10-25T17:36:39.500Z,3.27
2022-10-25T17:39:09.443Z,3.21
2022-10-25T17:41:37.926Z,3.22
2022-10-25T17:44:06.681Z,3.10
2022-10-25T17:46:35.221Z,2.99
2022-10-25T17:49:07.254Z,2.94
2022-10-25T17:51:37.110Z,3.03
2022-10-25T17:54:05.649Z,3.33
2022-10-25T17:56:34.280Z,3.41
2022-10-25T17:59:04.396Z,3.70
2022-10-25T18:01:36.561Z,3.85
2022-10-25T18:04:05.550Z,3.98
2022-10-25T18:06:34.097Z,3.94
2022-10-25T18:09:05.122Z,3.92
2022-10-25T18:11:33.596Z,4.07
2022-10-25T18:14:03.175Z,4.14
2022-10-25T18:16:32.956Z,4.21
2022-10-25T18:19:04.322Z,4.18
2022-10-25T18:21:34.199Z,4.20
2022-10-25T18:24:06.145Z,4.23
2022-10-25T18:26:36.098Z,4.40
2022-10-25T18:29:05.027Z,4.40
2022-10-25T18:31:33.793Z,4.46
2022-10-25T18:34:05.629Z,4.77
2022-10-25T18:36:34.493Z,4.52
2022-10-25T18:39:03.108Z,4.60
2022-10-25T18:41:34.046Z,4.69
2022-10-25T18:44:03.982Z,4.71
2022-10-25T18:46:33.857Z,4.81
2022-10-25T18:49:02.405Z,4.65
2022-10-25T18:51:31.470Z,4.74
2022-10-25T18:54:02.631Z,4.57
2022-10-25T18:56:32.381Z,4.68
2022-10-25T18:59:01.271Z,4.48
2022-10-25T19:01:33.592Z,4.63
2022-10-25T19:04:04.011Z,4.45
2022-10-25T19:06:33.735Z,4.42
2022-10-25T19:09:05.932Z,4.48
2022-10-25T19:11:35.920Z,4.63
2022-10-25T19:14:05.508Z,4.68
2022-10-25T19:16:33.822Z,4.69
2022-10-25T19:19:08.420Z,4.75
2022-10-25T19:21:37.027Z,4.84
2022-10-25T19:24:06.607Z,5.00
2022-10-25T19:26:35.097Z,4.97
2022-10-25T19:29:03.589Z,4.92
2022-10-25T19:31:32.153Z,4.53
2022-10-25T19:34:04.145Z,4.29
2022-10-25T19:36:33.461Z,4.29
2022-10-25T19:39:02.379Z,4.37
2022-10-25T19:41:30.918Z,4.40
2022-10-25T19:44:00.024Z,4.40
2022-10-25T19:46:28.530Z,4.90
2022-10-25T19:48:57.566Z,4.99
2022-10-25T19:51:26.144Z,4.99
2022-10-25T19:53:54.468Z,4.87
2022-10-25T19:56:24.689Z,4.85
2022-10-25T19:58:53.088Z,4.71
2022-10-25T20:01:30.696Z,5.02
2022-10-25T20:04:00.670Z,5.25
2022-10-25T20:06:34.653Z,5.25
2022-10-25T20:09:03.527Z,5.16
2022-10-25T20:11:32.786Z,5.03
2022-10-25T20:14:02.922Z,4.73
2022-10-25T20:16:32.072Z,4.50
2022-10-25T20:19:02.397Z,4.80
2022-10-25T20:21:36.475Z,5.23
2022-10-25T20:24:08.427Z,5.22
2022-10-25T20:26:42.985Z,5.18
2022-10-25T20:29:22.580Z,5.00
2022-10-25T20:31:53.269Z,4.93
2022-10-25T20:34:22.247Z,4.71
2022-10-25T20:36:50.933Z,4.70
2022-10-25T20:39:19.646Z,4.70
2022-10-25T20:41:47.999Z,4.84
2022-10-25T20:44:16.590Z,4.86
2022-10-25T20:46:45.085Z,4.75
2022-10-25T20:49:13.703Z,4.84
2022-10-25T20:51:42.239Z,5.08
2022-10-25T20:54:10.725Z,5.04
2022-10-25T20:56:40.590Z,4.99
2022-10-25T20:59:09.663Z,5.09
2022-10-25T21:01:38.421Z,4.93
2022-10-25T21:04:07.087Z,4.92
2022-10-25T21:06:35.628Z,5.07
2022-10-25T21:09:04.178Z,4.73
2022-10-25T21:11:33.888Z,4.51
2022-10-25T21:14:02.324Z,4.57
2022-10-25T21:16:30.793Z,4.60
2022-10-25T21:19:03.669Z,4.69
2022-10-25T21:21:32.412Z,5.00
2022-10-25T21:24:02.758Z,4.93
2022-10-25T21:26:31.141Z,5.02
2022-10-25T21:28:59.632Z,5.01
2022-10-25T21:31:28.163Z,4.97
2022-10-25T21:33:59.518Z,4.80
2022-10-25T21:36:28.754Z,5.02
2022-10-25T21:38:57.440Z,4.99
2022-10-25T21:41:28.032Z,4.94
2022-10-25T21:43:57.800Z,4.87
2022-10-25T21:46:28.237Z,4.86
2022-10-25T21:48:57.254Z,4.98
2022-10-25T21:51:26.009Z,5.00
2022-10-25T21:53:55.810Z,5.08
2022-10-25T21:56:24.643Z,5.02
2022-10-25T21:58:53.296Z,4.92
2022-10-25T22:01:24.071Z,4.81
2022-10-25T22:03:53.713Z,4.78
2022-10-25T22:06:24.517Z,4.77
2022-10-25T22:08:54.174Z,4.85
2022-10-25T22:11:25.801Z,4.86
2022-10-25T22:13:59.532Z,4.88
2022-10-25T22:16:29.061Z,4.92
2022-10-25T22:18:59.908Z,4.81
2022-10-25T22:21:31.808Z,4.84
2022-10-25T22:24:00.361Z,4.83
2022-10-25T22:26:28.854Z,4.84
2022-10-25T22:29:00.038Z,4.87
2022-10-25T22:31:30.199Z,4.80
2022-10-25T22:34:01.268Z,4.80
2022-10-25T22:36:32.058Z,4.78
2022-10-25T22:39:01.362Z,4.79
2022-10-25T22:41:31.393Z,4.70
2022-10-25T22:44:00.826Z,4.71
2022-10-25T22:46:32.037Z,4.59
2022-10-25T22:49:02.068Z,4.50
2022-10-25T22:51:30.554Z,4.50
2022-10-25T22:53:59.114Z,4.47
2022-10-25T22:56:29.691Z,4.41
2022-10-25T22:59:03.333Z,4.41
2022-10-25T23:01:34.087Z,4.40
2022-10-25T23:04:05.428Z,4.32
2022-10-25T23:06:39.639Z,4.27
2022-10-25T23:09:10.855Z,4.19
2022-10-25T23:11:41.716Z,4.09
2022-10-25T23:14:14.764Z,4.11
2022-10-25T23:16:46.532Z,4.07
2022-10-25T23:19:15.183Z,4.00
2022-10-25T23:21:43.691Z,3.91
2022-10-25T23:24:12.265Z,3.89
2022-10-25T23:26:41.417Z,3.83
2022-10-25T23:29:12.675Z,3.70
2022-10-25T23:31:41.129Z,3.66
2022-10-25T23:34:09.706Z,3.60
2022-10-25T23:36:40.829Z,3.45
2022-10-25T23:39:09.815Z,3.40
2022-10-25T23:41:38.287Z,3.30
2022-10-25T23:44:06.649Z,3.24
2022-10-25T23:46:35.214Z,3.13
2022-10-25T23:49:03.676Z,3.03
2022-10-25T23:51:32.245Z,2.92
2022-10-25T23:54:00.746Z,2.82
2022-10-25T23:56:29.179Z,2.66
2022-10-25T23:58:57.692Z,2.49
